Lakenan, Missouri
Current Conditions -  °F | °C
As of 7:35 AM on Friday 31 Oct 2014 (Local Time) from KHAE Reporting Station
Clear Clear  
Wind Chill: -4°   Ceiling: Unl
Heat Index:   Visibility: 10mi
Dew Point: -10°   Wind: 17mph
Humidity: 41%   Direction: 340°NNW
Pressure: 30.31"   Gusts: 30mph
Location:  39.7104°N, 92.0292°W
Report Text: KHAE 311235Z AUTO 34015G26KT 10SM CLR 02/M10 A3031 RMK AO2
Loading
Personal Weather Stations






























Interactive Weather Map
Tropical Storm Tracking
New forecast layout! Learn more

10-Day Weather Forecast

Advertisements
Track Severe Weather on mobile